Time;durP1;ratioP1;P1;durP2;ratioP2;P2;SDS_P1;SDS_P2;PMS_P1;PMS_P2;Temp;Humidity;BMP_temperature;BMP_pressure;BME280_temperature;BME280_humidity;BME280_pressure;Samples;Min_cycle;Max_cycle;Signal;HPM_P1;HPM_P2
2020/12/12 00:00:53;;;;;;;;;;;;;;;27.73;27.50;100013.69;5058932;28;843;-31
2020/12/12 00:03:18;;;;;;;;;;;;;;;28.55;26.50;100006.44;5058569;28;808;-34
2020/12/12 00:05:43;;;;;;;;;;;;;;;28.64;26.06;100010.63;5058238;28;987;-33
2020/12/12 00:08:09;;;;;;;;;;;;;;;28.39;26.34;100002.31;5058796;28;748;-34
2020/12/12 00:10:34;;;;;;;;;;;;;;;27.98;27.53;100000.44;5058623;28;1909;-32
2020/12/12 00:12:59;;;;;;;;;;;;;;;28.19;26.69;99998.56;5058637;28;827;-33
2020/12/12 00:15:25;;;;;;;;;;;;;;;28.51;26.56;100010.63;5071317;28;1108;-33
2020/12/12 00:17:50;;;;;;;;;;;;;;;28.66;26.17;100007.69;5078151;28;1244;-35
2020/12/12 00:20:16;;;;;;;;;;;;;;;28.24;26.74;100004.16;5063380;28;1125;-33
2020/12/12 00:22:42;;;;;;;;;;;;;;;28.16;26.64;100000.88;5058422;28;841;-33
2020/12/12 00:25:09;;;;;;;;;;;;;;;28.33;26.79;99994.00;5058127;28;878;-34
2020/12/12 00:27:34;;;;;;;;;;;;;;;28.12;27.03;99981.50;5058015;28;859;-32
2020/12/12 00:29:59;;;;;;;;;;;;;;;28.44;25.95;99986.31;5057926;28;1979;-33
2020/12/12 00:32:25;;;;;;;;;;;;;;;28.37;26.25;99986.31;5058066;28;776;-34
2020/12/12 00:34:50;;;;;;;;;;;;;;;27.95;27.04;99976.53;5057788;28;951;-33
2020/12/12 00:37:18;;;;;;;;;;;;;;;28.44;26.12;99970.06;5057853;28;764;-34
2020/12/12 00:39:43;;;;;;;;;;;;;;;28.50;26.24;99973.78;5057705;28;815;-34
2020/12/12 00:42:09;;;;;;;;;;;;;;;28.49;25.78;99964.84;5058376;28;847;-34
2020/12/12 00:44:34;;;;;;;;;;;;;;;27.84;27.32;99958.22;5057698;28;911;-35
2020/12/12 00:47:02;;;;;;;;;;;;;;;27.96;27.11;99953.03;5057588;28;863;-37
2020/12/12 00:49:27;;;;;;;;;;;;;;;28.44;26.30;99946.56;5057306;28;1902;-34
2020/12/12 00:51:52;;;;;;;;;;;;;;;28.08;26.87;99939.69;5057746;28;822;-33
2020/12/12 00:54:18;;;;;;;;;;;;;;;28.53;26.04;99941.72;5057726;28;865;-34
2020/12/12 00:56:43;;;;;;;;;;;;;;;28.33;26.09;99947.19;5058096;28;811;-32
2020/12/12 00:59:08;;;;;;;;;;;;;;;28.09;27.11;99936.78;5057275;28;808;-33
2020/12/12 01:01:34;;;;;;;;;;;;;;;28.32;26.77;99940.94;5057451;28;882;-35
2020/12/12 01:03:59;;;;;;;;;;;;;;;28.16;27.16;99938.66;5057630;28;1006;-36
2020/12/12 01:06:24;;;;;;;;;;;;;;;28.52;26.47;99950.91;5057205;28;834;-35
2020/12/12 01:08:49;;;;;;;;;;;;;;;28.43;26.34;99936.75;5057714;28;1961;-34
2020/12/12 01:11:15;;;;;;;;;;;;;;;28.22;26.92;99938.66;5057437;28;759;-34
2020/12/12 01:13:40;;;;;;;;;;;;;;;27.82;27.52;99928.72;5038899;28;1169;-34
2020/12/12 01:16:06;;;;;;;;;;;;;;;28.13;27.07;99918.28;5075865;28;1199;-33
2020/12/12 01:18:32;;;;;;;;;;;;;;;28.40;26.65;99922.81;5075856;28;1264;-33
2020/12/12 01:20:57;;;;;;;;;;;;;;;28.22;26.33;99916.19;5057066;28;851;-35
2020/12/12 01:23:22;;;;;;;;;;;;;;;28.00;27.29;99913.72;5057319;28;767;-35
2020/12/12 01:25:47;;;;;;;;;;;;;;;28.12;27.24;99908.50;5056659;28;859;-34
2020/12/12 01:28:13;;;;;;;;;;;;;;;28.60;26.58;99901.97;5056627;28;812;-33
2020/12/12 01:30:38;;;;;;;;;;;;;;;28.64;26.12;99896.13;5057131;28;1915;-33
2020/12/12 01:33:03;;;;;;;;;;;;;;;28.32;26.54;99904.94;5056688;28;573;-34
2020/12/12 01:35:29;;;;;;;;;;;;;;;28.09;27.07;99903.53;5056842;28;1026;-35
2020/12/12 01:37:54;;;;;;;;;;;;;;;28.20;26.89;99905.59;5056777;28;775;-34
2020/12/12 01:40:19;;;;;;;;;;;;;;;28.21;26.83;99911.84;5056807;28;784;-34
2020/12/12 01:42:45;;;;;;;;;;;;;;;28.38;26.66;99896.00;5056709;28;855;-34
2020/12/12 01:45:10;;;;;;;;;;;;;;;28.39;26.43;99894.97;5056667;28;831;-34
2020/12/12 01:47:35;;;;;;;;;;;;;;;27.88;27.60;99889.19;5056718;28;819;-35
2020/12/12 01:50:01;;;;;;;;;;;;;;;27.95;27.35;99891.88;5056585;28;1975;-34
2020/12/12 01:52:26;;;;;;;;;;;;;;;27.92;27.54;99881.50;5055878;28;748;-35
2020/12/12 01:54:52;;;;;;;;;;;;;;;28.22;27.19;99879.16;5039109;28;879;-34
2020/12/12 01:57:20;;;;;;;;;;;;;;;28.54;26.47;99881.19;5056902;28;740;-34
2020/12/12 01:59:46;;;;;;;;;;;;;;;28.32;26.49;99870.63;5055896;28;844;-33
2020/12/12 02:02:12;;;;;;;;;;;;;;;27.95;27.52;99870.25;5056366;28;775;-35
2020/12/12 02:04:37;;;;;;;;;;;;;;;28.03;27.33;99866.53;5056212;28;1047;-33
2020/12/12 02:07:02;;;;;;;;;;;;;;;28.45;26.33;99869.75;5056107;28;823;-34
2020/12/12 02:09:28;;;;;;;;;;;;;;;28.31;26.39;99870.81;5038666;28;1910;-34
2020/12/12 02:11:53;;;;;;;;;;;;;;;27.71;27.76;99873.41;5056528;28;874;-29
2020/12/12 02:14:18;;;;;;;;;;;;;;;28.41;26.71;99871.22;5042230;28;1156;-32
2020/12/12 02:16:50;;;;;;;;;;;;;;;28.55;26.71;99863.06;5076352;28;960;-32
2020/12/12 02:19:15;;;;;;;;;;;;;;;28.71;26.33;99864.47;5069140;28;1233;-36
2020/12/12 02:21:40;;;;;;;;;;;;;;;28.52;26.53;99856.22;5056080;28;744;-34
2020/12/12 02:24:06;;;;;;;;;;;;;;;28.04;27.20;99855.50;5056401;28;772;-35
2020/12/12 02:26:31;;;;;;;;;;;;;;;28.38;27.15;99844.59;5056297;28;898;-34
2020/12/12 02:28:56;;;;;;;;;;;;;;;28.08;27.67;99854.03;5055918;28;1985;-34
2020/12/12 02:31:24;;;;;;;;;;;;;;;28.60;26.25;99849.72;5056699;28;839;-34
2020/12/12 02:33:50;;;;;;;;;;;;;;;28.36;26.71;99842.13;5055772;28;943;-35
2020/12/12 02:36:15;;;;;;;;;;;;;;;28.02;27.41;99844.06;5056061;28;867;-33
2020/12/12 02:38:43;;;;;;;;;;;;;;;28.59;26.31;99832.66;5056220;28;823;-34
2020/12/12 02:41:09;;;;;;;;;;;;;;;28.52;26.79;99828.31;5056295;28;811;-34
2020/12/12 02:43:34;;;;;;;;;;;;;;;28.52;26.24;99825.63;5056059;28;760;-34
2020/12/12 02:45:59;;;;;;;;;;;;;;;28.37;26.69;99829.44;5056180;28;780;-34
2020/12/12 02:48:24;;;;;;;;;;;;;;;28.20;27.34;99823.63;5055629;28;1914;-34
2020/12/12 02:50:50;;;;;;;;;;;;;;;28.65;26.67;99828.25;5055487;28;924;-33
2020/12/12 02:53:15;;;;;;;;;;;;;;;28.24;27.08;99831.09;5056435;28;806;-32
2020/12/12 02:55:40;;;;;;;;;;;;;;;28.58;26.38;99827.44;5055829;28;819;-33
2020/12/12 02:58:06;;;;;;;;;;;;;;;28.35;26.67;99823.41;5055674;28;890;-33
2020/12/12 03:00:31;;;;;;;;;;;;;;;28.05;27.27;99832.81;5055733;28;776;-34
2020/12/12 03:02:56;;;;;;;;;;;;;;;28.66;26.35;99826.41;5056644;28;724;-34
2020/12/12 03:05:21;;;;;;;;;;;;;;;28.63;25.98;99826.84;5059729;28;924;-36
2020/12/12 03:07:47;;;;;;;;;;;;;;;28.43;26.54;99828.56;5059550;28;843;-35
2020/12/12 03:10:12;;;;;;;;;;;;;;;28.18;26.88;99818.44;5059500;28;1898;-34
2020/12/12 03:12:38;;;;;;;;;;;;;;;28.46;26.46;99824.63;5059868;28;764;-35
2020/12/12 03:15:06;;;;;;;;;;;;;;;27.87;27.59;99820.81;5069237;28;1171;-35
2020/12/12 03:17:32;;;;;;;;;;;;;;;28.05;27.69;99813.91;5079079;28;1186;-34
2020/12/12 03:19:57;;;;;;;;;;;;;;;28.52;26.19;99809.38;5078363;28;951;-35
2020/12/12 03:22:22;;;;;;;;;;;;;;;28.34;26.79;99810.94;5079520;28;806;-34
2020/12/12 03:24:47;;;;;;;;;;;;;;;28.40;26.72;99799.25;5079335;28;811;-34
2020/12/12 03:27:13;;;;;;;;;;;;;;;28.61;26.40;99797.28;5079410;28;834;-33
2020/12/12 03:29:38;;;;;;;;;;;;;;;28.54;26.12;99800.03;5078961;28;1969;-34
2020/12/12 03:32:07;;;;;;;;;;;;;;;28.48;26.32;99801.69;5079222;28;819;-34
2020/12/12 03:34:32;;;;;;;;;;;;;;;28.14;27.25;99797.44;5069830;28;939;-35
2020/12/12 03:36:58;;;;;;;;;;;;;;;28.51;26.51;99807.72;5059058;28;728;-35
2020/12/12 03:39:23;;;;;;;;;;;;;;;28.02;27.21;99799.97;5059175;28;847;-34
2020/12/12 03:41:48;;;;;;;;;;;;;;;28.14;26.90;99795.56;5059059;28;756;-33
2020/12/12 03:44:13;;;;;;;;;;;;;;;28.38;26.69;99795.91;5058896;28;827;-34
2020/12/12 03:46:39;;;;;;;;;;;;;;;28.15;26.65;99797.22;5059180;28;759;-34
2020/12/12 03:49:04;;;;;;;;;;;;;;;28.28;26.93;99798.25;5058365;28;1957;-34
2020/12/12 03:51:29;;;;;;;;;;;;;;;28.23;27.27;99794.28;5058782;28;776;-35
2020/12/12 03:53:54;;;;;;;;;;;;;;;28.55;26.49;99795.41;5058874;28;836;-34
2020/12/12 03:56:20;;;;;;;;;;;;;;;28.48;26.17;99799.00;5059028;28;767;-33
2020/12/12 03:58:45;;;;;;;;;;;;;;;27.89;27.48;99788.16;5058699;28;791;-36
2020/12/12 04:01:10;;;;;;;;;;;;;;;28.59;26.41;99783.94;5058936;28;776;-38
2020/12/12 04:03:36;;;;;;;;;;;;;;;27.25;27.20;99786.75;5058268;28;955;-38
2020/12/12 04:06:01;;;;;;;;;;;;;;;25.68;29.67;99795.28;5058432;28;827;-39
2020/12/12 04:08:26;;;;;;;;;;;;;;;25.71;30.01;99780.56;5058612;28;1971;-38
2020/12/12 04:10:51;;;;;;;;;;;;;;;25.98;29.00;99774.50;5058743;28;835;-38
2020/12/12 04:13:17;;;;;;;;;;;;;;;25.31;29.92;99770.28;5057849;28;859;-36
2020/12/12 04:15:42;;;;;;;;;;;;;;;25.47;30.02;99774.59;5073224;28;1096;-36
2020/12/12 04:18:08;;;;;;;;;;;;;;;25.17;30.42;99770.19;5060105;28;1379;-37
2020/12/12 04:20:33;;;;;;;;;;;;;;;24.73;31.06;99758.56;5060385;28;1018;-33
2020/12/12 04:22:58;;;;;;;;;;;;;;;24.45;31.98;99765.53;5058726;28;803;-39
2020/12/12 04:25:24;;;;;;;;;;;;;;;24.33;31.95;99767.03;5058414;28;792;-39
2020/12/12 04:27:49;;;;;;;;;;;;;;;22.13;35.76;99766.41;5058218;28;788;-39
2020/12/12 04:30:15;;;;;;;;;;;;;;;21.09;38.19;99765.19;5058620;28;1989;-38
2020/12/12 04:32:40;;;;;;;;;;;;;;;21.50;38.39;99767.03;5058161;28;764;-36
2020/12/12 04:35:05;;;;;;;;;;;;;;;24.05;33.26;99763.16;5070472;28;983;-36
2020/12/12 04:37:30;;;;;;;;;;;;;;;24.41;32.34;99764.22;5078176;28;752;-31
2020/12/12 04:39:56;;;;;;;;;;;;;;;23.78;33.36;99764.63;5078097;28;808;-37
2020/12/12 04:42:21;;;;;;;;;;;;;;;22.42;35.88;99762.25;5077974;28;813;-36
2020/12/12 04:44:46;;;;;;;;;;;;;;;22.62;35.61;99756.50;5060476;28;920;-35
2020/12/12 04:47:12;;;;;;;;;;;;;;;21.98;36.83;99763.63;5059834;28;744;-36
2020/12/12 04:49:37;;;;;;;;;;;;;;;22.70;35.43;99761.81;5067461;28;1909;-34
2020/12/12 04:52:03;;;;;;;;;;;;;;;23.14;34.51;99764.03;5057983;28;764;-36
2020/12/12 04:54:30;;;;;;;;;;;;;;;22.51;35.77;99760.38;5057611;28;768;-36
2020/12/12 04:56:55;;;;;;;;;;;;;;;22.60;35.44;99758.50;5057302;28;906;-36
2020/12/12 04:59:20;;;;;;;;;;;;;;;22.67;35.54;99767.50;5052835;28;1487;-33
2020/12/12 05:01:46;;;;;;;;;;;;;;;22.46;36.13;99763.59;5059792;28;775;-35
2020/12/12 05:04:11;;;;;;;;;;;;;;;24.58;31.82;99766.69;5053485;28;1510;-39
2020/12/12 05:06:36;;;;;;;;;;;;;;;23.83;32.99;99763.06;5057855;28;803;-41
2020/12/12 05:09:02;;;;;;;;;;;;;;;23.77;33.28;99757.59;5057137;28;1972;-39
2020/12/12 05:11:27;;;;;;;;;;;;;;;24.66;32.20;99761.19;5057566;28;755;-32
2020/12/12 05:13:52;;;;;;;;;;;;;;;23.97;33.04;99760.56;5056781;28;1167;-36
2020/12/12 05:16:18;;;;;;;;;;;;;;;23.72;34.23;99755.47;5077415;28;747;-31
2020/12/12 05:18:43;;;;;;;;;;;;;;;24.64;32.56;99757.84;5073572;28;1087;-30
2020/12/12 05:21:09;;;;;;;;;;;;;;;25.48;31.12;99757.38;5039309;28;728;-29
2020/12/12 05:23:34;;;;;;;;;;;;;;;25.40;30.90;99761.06;5057333;28;787;-35
2020/12/12 05:25:59;;;;;;;;;;;;;;;25.31;30.93;99756.84;5038482;28;1216;-29
2020/12/12 05:28:25;;;;;;;;;;;;;;;25.14;31.67;99753.63;5056383;28;1918;-36
2020/12/12 05:30:51;;;;;;;;;;;;;;;26.03;30.28;99750.47;5057161;28;748;-36
2020/12/12 05:33:17;;;;;;;;;;;;;;;25.76;30.70;99753.88;5057208;28;740;-36
2020/12/12 05:35:43;;;;;;;;;;;;;;;25.81;30.56;99750.56;5056580;28;982;-37
2020/12/12 05:38:12;;;;;;;;;;;;;;;25.97;30.47;99751.28;5056948;28;1016;-30
2020/12/12 05:40:41;;;;;;;;;;;;;;;25.53;31.57;99746.03;5056916;28;823;-33
2020/12/12 05:43:06;;;;;;;;;;;;;;;26.62;29.90;99747.41;5056510;28;875;-33
2020/12/12 05:45:31;;;;;;;;;;;;;;;26.41;30.01;99743.81;5056551;28;808;-36
2020/12/12 05:47:57;;;;;;;;;;;;;;;26.45;29.89;99739.69;5056485;28;772;-37
2020/12/12 05:50:23;;;;;;;;;;;;;;;26.05;31.09;99734.94;5056300;28;1882;-35
2020/12/12 05:52:50;;;;;;;;;;;;;;;26.83;29.80;99734.75;5057148;28;783;-31
2020/12/12 05:55:15;;;;;;;;;;;;;;;26.89;29.86;99733.97;5056000;28;886;-32
2020/12/12 05:57:41;;;;;;;;;;;;;;;26.72;29.92;99737.06;5038764;28;1304;-32
2020/12/12 06:00:06;;;;;;;;;;;;;;;26.67;30.05;99734.13;5038641;28;843;-33
2020/12/12 06:02:34;;;;;;;;;;;;;;;26.75;29.94;99733.94;5055970;28;755;-40
2020/12/12 06:04:59;;;;;;;;;;;;;;;26.79;29.91;99737.06;5056514;28;944;-30
2020/12/12 06:07:28;;;;;;;;;;;;;;;26.73;30.09;99743.25;5039080;28;863;-37
2020/12/12 06:10:04;;;;;;;;;;;;;;;26.80;29.72;99733.31;5055933;28;1957;-35
2020/12/12 06:12:29;;;;;;;;;;;;;;;26.81;29.81;99736.88;5056491;28;740;-37
2020/12/12 06:14:55;;;;;;;;;;;;;;;26.92;29.93;99736.25;5064894;28;1140;-36
2020/12/12 06:17:49;;;;;;;;;;;;;;;27.26;29.58;99741.66;5075749;28;1293;-37
2020/12/12 06:20:15;;;;;;;;;;;;;;;26.93;29.80;99740.59;5047772;28;1587;-40
2020/12/12 06:22:41;;;;;;;;;;;;;;;26.79;30.05;99728.97;5056035;28;818;-31
2020/12/12 06:25:07;;;;;;;;;;;;;;;26.67;30.67;99730.59;5065135;28;853;-34
2020/12/12 06:27:36;;;;;;;;;;;;;;;27.51;29.20;99730.22;5075695;28;906;-37
2020/12/12 06:30:02;;;;;;;;;;;;;;;27.35;29.12;99729.63;5058169;28;1909;-36
2020/12/12 06:32:27;;;;;;;;;;;;;;;27.07;29.83;99729.84;5075123;28;844;-31
2020/12/12 06:34:53;;;;;;;;;;;;;;;26.85;29.94;99724.59;5046302;28;995;-37
2020/12/12 06:37:24;;;;;;;;;;;;;;;26.22;31.38;99729.22;5055536;28;827;-36
2020/12/12 06:39:50;;;;;;;;;;;;;;;27.17;29.69;99724.03;5060095;28;807;-29
2020/12/12 06:42:33;;;;;;;;;;;;;;;27.71;29.13;99718.59;5080174;28;1021;-36
2020/12/12 06:44:59;;;;;;;;;;;;;;;27.21;29.52;99723.41;5080024;28;748;-37
2020/12/12 06:47:37;;;;;;;;;;;;;;;27.08;29.72;99731.50;5080203;28;759;-32
2020/12/12 06:50:11;;;;;;;;;;;;;;;26.87;29.94;99731.47;5066989;28;1969;-35
2020/12/12 06:52:37;;;;;;;;;;;;;;;26.81;30.35;99734.16;5059773;28;830;-31
2020/12/12 06:55:06;;;;;;;;;;;;;;;27.45;29.45;99731.91;5060027;28;788;-36
2020/12/12 06:57:35;;;;;;;;;;;;;;;27.57;29.25;99726.69;5059506;28;789;-36
2020/12/12 07:00:00;;;;;;;;;;;;;;;27.25;29.57;99729.22;5060021;28;850;-36
2020/12/12 07:02:26;;;;;;;;;;;;;;;27.10;29.78;99729.41;5081606;28;891;-31
2020/12/12 07:04:51;;;;;;;;;;;;;;;27.04;29.98;99735.66;5084047;28;863;-37
2020/12/12 07:07:16;;;;;;;;;;;;;;;27.13;29.85;99729.00;5079547;28;864;-32
2020/12/12 07:09:42;;;;;;;;;;;;;;;27.13;30.02;99729.00;5079688;28;1898;-37
2020/12/12 07:12:07;;;;;;;;;;;;;;;27.09;30.01;99725.06;5079548;28;808;-33
2020/12/12 07:14:33;;;;;;;;;;;;;;;27.05;30.00;99713.84;5079678;28;1139;-30
2020/12/12 07:17:00;;;;;;;;;;;;;;;27.09;30.02;99712.38;5079242;28;857;-29
2020/12/12 07:19:38;;;;;;;;;;;;;;;27.09;30.02;99715.09;5071266;28;1151;-29
2020/12/12 07:22:04;;;;;;;;;;;;;;;27.13;30.01;99708.25;5059517;28;826;-38
2020/12/12 07:24:29;;;;;;;;;;;;;;;27.03;30.06;99710.53;5072591;28;817;-29
2020/12/12 07:26:55;;;;;;;;;;;;;;;26.99;30.42;99703.88;5079285;28;755;-35
2020/12/12 07:29:20;;;;;;;;;;;;;;;27.04;30.28;99711.38;5079538;28;1909;-37
2020/12/12 07:31:46;;;;;;;;;;;;;;;27.04;30.56;99703.28;5079307;28;835;-37
2020/12/12 07:34:11;;;;;;;;;;;;;;;27.08;30.20;99708.03;5073131;28;966;-31
2020/12/12 07:36:37;;;;;;;;;;;;;;;27.00;30.24;99705.53;5041545;28;787;-31
2020/12/12 07:39:09;;;;;;;;;;;;;;;27.09;30.20;99704.28;5059003;28;756;-29
2020/12/12 07:41:36;;;;;;;;;;;;;;;27.09;30.38;99698.09;5059316;28;768;-38
2020/12/12 07:44:01;;;;;;;;;;;;;;;27.04;30.47;99697.88;5059184;28;760;-38
2020/12/12 07:46:40;;;;;;;;;;;;;;;26.61;29.19;99689.13;5040715;28;1351;-39
2020/12/12 07:49:06;;;;;;;;;;;;;;;26.93;30.16;99697.41;5070224;28;1977;-38
2020/12/12 07:51:31;;;;;;;;;;;;;;;27.06;30.29;99688.50;5058239;28;819;-34
2020/12/12 07:53:56;;;;;;;;;;;;;;;27.00;30.18;99700.13;5072154;28;779;-39
2020/12/12 07:56:23;;;;;;;;;;;;;;;27.05;29.97;99696.81;5078738;28;813;-37
2020/12/12 07:59:02;;;;;;;;;;;;;;;27.12;29.80;99695.81;5074440;28;814;-37
2020/12/12 08:01:27;;;;;;;;;;;;;;;27.10;30.15;99691.63;5078475;28;775;-36
2020/12/12 08:03:52;;;;;;;;;;;;;;;27.09;30.35;99687.28;5074875;28;990;-36
2020/12/12 08:06:18;;;;;;;;;;;;;;;27.05;30.18;99683.31;5058602;28;740;-33
2020/12/12 08:08:43;;;;;;;;;;;;;;;27.22;30.11;99689.13;5058398;28;1901;-32
2020/12/12 08:11:08;;;;;;;;;;;;;;;27.53;29.69;99690.31;5040309;28;1559;-38
2020/12/12 08:13:34;;;;;;;;;;;;;;;27.85;28.96;99692.31;5066921;28;1045;-41
2020/12/12 08:16:05;;;;;;;;;;;;;;;28.08;28.68;99697.22;5078342;28;1175;-39
2020/12/12 08:18:31;;;;;;;;;;;;;;;28.44;28.14;99696.84;5077763;28;1111;-31
2020/12/12 08:21:08;;;;;;;;;;;;;;;28.65;27.88;99694.84;5058069;28;845;-31
2020/12/12 08:23:33;;;;;;;;;;;;;;;28.94;27.75;99687.13;5058355;28;898;-40
2020/12/12 08:25:58;;;;;;;;;;;;;;;28.94;27.48;99690.69;5058307;28;1020;-38
2020/12/12 08:28:25;;;;;;;;;;;;;;;28.47;27.95;99685.59;5040503;28;934;-40
2020/12/12 08:30:50;;;;;;;;;;;;;;;28.08;28.91;99685.56;5040153;28;1914;-37
2020/12/12 08:33:15;;;;;;;;;;;;;;;28.95;27.85;99684.19;5058092;28;830;-38
2020/12/12 08:35:41;;;;;;;;;;;;;;;28.54;27.78;99663.91;5057608;28;987;-36
2020/12/12 08:38:07;;;;;;;;;;;;;;;28.35;27.98;99670.06;5057853;28;834;-36
2020/12/12 08:40:32;;;;;;;;;;;;;;;28.76;28.20;99663.53;5058208;28;751;-36
2020/12/12 08:43:02;;;;;;;;;;;;;;;29.02;27.84;99657.09;5057868;28;779;-35
2020/12/12 08:45:28;;;;;;;;;;;;;;;29.41;26.94;99654.19;5057587;28;1504;-27
2020/12/12 08:48:19;;;;;;;;;;;;;;;28.87;27.46;99640.34;5057640;28;783;-31
2020/12/12 08:50:48;;;;;;;;;;;;;;;28.55;28.05;99638.50;5054206;28;2001;-35
2020/12/12 08:53:23;;;;;;;;;;;;;;;28.16;28.67;99633.94;5058020;28;786;-31
2020/12/12 08:56:00;;;;;;;;;;;;;;;29.04;27.69;99635.22;5057593;28;863;-36
2020/12/12 08:58:44;;;;;;;;;;;;;;;29.42;27.27;99627.94;5057675;28;768;-34
2020/12/12 09:01:09;;;;;;;;;;;;;;;28.84;27.69;99625.38;5057540;28;771;-36
2020/12/12 09:03:35;;;;;;;;;;;;;;;28.55;28.16;99615.00;5056955;28;975;-34
2020/12/12 09:06:06;;;;;;;;;;;;;;;29.00;27.96;99602.34;5057468;28;852;-35
2020/12/12 09:08:32;;;;;;;;;;;;;;;29.48;26.78;99597.22;5057165;28;1899;-36
2020/12/12 09:11:09;;;;;;;;;;;;;;;29.32;26.88;99595.97;5057256;28;760;-34
2020/12/12 09:13:34;;;;;;;;;;;;;;;28.70;27.84;99592.19;5057362;28;829;-34
2020/12/12 09:15:59;;;;;;;;;;;;;;;28.40;28.05;99593.69;5074811;28;1141;-36
2020/12/12 09:18:24;;;;;;;;;;;;;;;28.27;28.85;99583.75;5077005;28;1137;-33
2020/12/12 09:20:50;;;;;;;;;;;;;;;29.30;27.24;99576.38;5057235;28;1103;-30
2020/12/12 09:23:15;;;;;;;;;;;;;;;28.82;27.32;99578.75;5059661;28;1183;-33
2020/12/12 09:25:40;;;;;;;;;;;;;;;28.52;28.05;99576.72;5065419;28;1095;-31
2020/12/12 09:28:05;;;;;;;;;;;;;;;28.82;27.76;99573.34;5067419;28;1171;-33
2020/12/12 09:30:31;;;;;;;;;;;;;;;29.39;27.29;99569.63;5066466;28;1981;-33
2020/12/12 09:32:56;;;;;;;;;;;;;;;28.99;27.34;99568.22;5070855;28;1205;-35
2020/12/12 09:35:21;;;;;;;;;;;;;;;28.53;27.89;99586.53;5060756;28;947;-29
2020/12/12 09:37:47;;;;;;;;;;;;;;;28.42;28.46;99574.53;5056740;28;826;-30
2020/12/12 09:40:12;;;;;;;;;;;;;;;28.43;28.80;99574.31;5057124;28;903;-33
2020/12/12 09:42:38;;;;;;;;;;;;;;;29.25;27.27;99568.94;5056533;28;898;-38
2020/12/12 09:45:03;;;;;;;;;;;;;;;28.81;27.56;99571.69;5056570;28;780;-32
2020/12/12 09:47:28;;;;;;;;;;;;;;;28.65;27.91;99564.97;5056825;28;875;-29
2020/12/12 09:49:53;;;;;;;;;;;;;;;28.99;27.61;99565.50;5056234;28;1964;-34
2020/12/12 09:52:22;;;;;;;;;;;;;;;29.42;27.02;99563.75;5056428;28;816;-35
2020/12/12 09:54:47;;;;;;;;;;;;;;;28.91;27.66;99544.91;5056584;28;723;-32
2020/12/12 09:57:12;;;;;;;;;;;;;;;28.50;28.21;99541.78;5056339;28;835;-36
2020/12/12 09:59:38;;;;;;;;;;;;;;;28.90;27.29;99527.03;5056431;28;795;-30
2020/12/12 10:02:03;;;;;;;;;;;;;;;28.92;27.50;99526.81;5056495;28;937;-28
2020/12/12 10:04:28;;;;;;;;;;;;;;;29.28;27.02;99522.44;5056428;28;932;-35
2020/12/12 10:06:53;;;;;;;;;;;;;;;29.02;27.52;99520.91;5056699;28;894;-36
2020/12/12 10:09:19;;;;;;;;;;;;;;;28.88;27.76;99509.38;5056396;28;1987;-34
2020/12/12 10:11:48;;;;;;;;;;;;;;;28.94;27.71;99513.88;5056462;28;772;-34
2020/12/12 10:14:13;;;;;;;;;;;;;;;29.77;26.50;99515.38;5040784;28;1183;-34
2020/12/12 10:16:38;;;;;;;;;;;;;;;29.35;27.08;99519.66;5076261;28;563;-35
2020/12/12 10:19:04;;;;;;;;;;;;;;;29.21;27.06;99519.03;5070855;28;1134;-35
2020/12/12 10:21:29;;;;;;;;;;;;;;;28.63;28.57;99508.38;5056781;28;1590;-36
2020/12/12 10:23:54;;;;;;;;;;;;;;;28.38;28.92;99500.31;5056440;28;791;-30
2020/12/12 10:26:20;;;;;;;;;;;;;;;29.19;27.51;99510.28;5055872;28;1001;-36
2020/12/12 10:28:45;;;;;;;;;;;;;;;29.17;27.63;99507.81;5067814;28;1910;-35
2020/12/12 10:31:10;;;;;;;;;;;;;;;29.15;27.65;99501.78;5075831;28;785;-33
2020/12/12 10:33:35;;;;;;;;;;;;;;;28.84;28.47;99517.13;5074383;28;855;-34
2020/12/12 10:36:01;;;;;;;;;;;;;;;29.48;27.33;99513.22;5056388;28;803;-35
2020/12/12 10:38:26;;;;;;;;;;;;;;;29.38;27.53;99502.13;5056394;28;812;-33
2020/12/12 10:41:03;;;;;;;;;;;;;;;29.23;27.56;99505.25;5056028;28;890;-34
2020/12/12 10:43:28;;;;;;;;;;;;;;;28.53;29.56;99502.66;5055880;28;838;-34
2020/12/12 10:45:54;;;;;;;;;;;;;;;28.87;29.07;99497.72;5056004;28;843;-38
2020/12/12 10:48:19;;;;;;;;;;;;;;;29.14;28.47;99488.47;5055886;28;793;-36
2020/12/12 10:50:45;;;;;;;;;;;;;;;29.17;28.32;99496.16;5055596;28;1906;-34
2020/12/12 10:53:10;;;;;;;;;;;;;;;29.25;28.42;99492.28;5055751;28;815;-37
2020/12/12 10:55:35;;;;;;;;;;;;;;;29.04;29.02;99489.84;5055804;28;788;-38
2020/12/12 10:58:01;;;;;;;;;;;;;;;28.23;27.33;99482.47;5063170;28;825;-37
2020/12/12 11:00:27;;;;;;;;;;;;;;;27.20;28.74;99475.22;5076001;28;842;-37
2020/12/12 11:02:53;;;;;;;;;;;;;;;26.28;31.31;99469.59;5075727;28;839;-36
2020/12/12 11:05:18;;;;;;;;;;;;;;;25.84;31.39;99470.00;5060422;28;927;-38
2020/12/12 11:07:43;;;;;;;;;;;;;;;26.23;31.02;99466.69;5056650;28;756;-38
2020/12/12 11:10:09;;;;;;;;;;;;;;;26.26;30.77;99464.41;5055887;28;1975;-36
2020/12/12 11:12:34;;;;;;;;;;;;;;;25.89;30.73;99462.13;5058068;28;855;-29
2020/12/12 11:14:59;;;;;;;;;;;;;;;25.85;31.17;99462.75;5075971;28;1033;-37
2020/12/12 11:17:25;;;;;;;;;;;;;;;25.52;31.74;99459.78;5075590;28;846;-32
2020/12/12 11:19:50;;;;;;;;;;;;;;;25.57;31.34;99461.88;5063848;28;1315;-36
2020/12/12 11:22:15;;;;;;;;;;;;;;;25.98;31.20;99456.53;5058729;28;825;-37
2020/12/12 11:24:41;;;;;;;;;;;;;;;26.05;31.47;99449.31;5075876;28;775;-36
2020/12/12 11:27:06;;;;;;;;;;;;;;;25.70;31.58;99457.56;5079581;28;760;-32
2020/12/12 11:29:31;;;;;;;;;;;;;;;26.16;31.26;99454.06;5079198;28;1905;-36
2020/12/12 11:31:56;;;;;;;;;;;;;;;25.83;31.75;99456.75;5079357;28;879;-34
2020/12/12 11:44:48;;;;;;;;;;;;;;;25.84;31.34;99440.38;5078695;28;637;-37
2020/12/12 11:47:13;;;;;;;;;;;;;;;25.85;31.52;99439.34;5079055;28;847;-37
2020/12/12 11:49:40;;;;;;;;;;;;;;;25.70;31.80;99444.09;5068829;28;1894;-37
2020/12/12 11:52:05;;;;;;;;;;;;;;;25.31;32.25;99441.91;5058779;28;759;-36
2020/12/12 11:54:30;;;;;;;;;;;;;;;25.23;32.34;99436.72;5058940;28;744;-37
2020/12/12 11:56:55;;;;;;;;;;;;;;;25.47;32.13;99426.44;5058967;28;776;-36
2020/12/12 11:59:21;;;;;;;;;;;;;;;25.31;32.36;99441.91;5058445;28;831;-35
2020/12/12 12:01:47;;;;;;;;;;;;;;;25.35;32.36;99435.09;5058541;28;793;-31
2020/12/12 12:04:12;;;;;;;;;;;;;;;25.46;32.37;99441.75;5058367;28;994;-36
2020/12/12 12:06:37;;;;;;;;;;;;;;;25.13;32.84;99432.56;5059014;28;812;-35
2020/12/12 12:11:32;;;;;;;;;;;;;;;27.47;29.43;99440.00;5074466;28;821;-32
2020/12/12 12:13:58;;;;;;;;;;;;;;;27.67;29.15;99439.03;5077460;28;933;-30
2020/12/12 12:16:23;;;;;;;;;;;;;;;27.63;28.90;99438.63;5078909;28;778;-36
2020/12/12 12:18:48;;;;;;;;;;;;;;;27.80;28.62;99444.38;5074895;28;1075;-35
2020/12/12 12:21:14;;;;;;;;;;;;;;;27.85;28.69;99449.13;5058222;28;755;-37
2020/12/12 12:23:39;;;;;;;;;;;;;;;27.80;29.00;99452.47;5058005;28;890;-35
2020/12/12 12:26:04;;;;;;;;;;;;;;;27.85;29.06;99449.94;5058167;28;763;-34
2020/12/12 12:28:30;;;;;;;;;;;;;;;27.82;29.09;99441.44;5058336;28;764;-36
2020/12/12 12:30:55;;;;;;;;;;;;;;;27.65;29.38;99441.94;5057969;28;1930;-38
2020/12/12 12:33:20;;;;;;;;;;;;;;;27.78;29.49;99441.06;5057989;28;771;-38
2020/12/12 12:35:46;;;;;;;;;;;;;;;27.72;29.36;99437.38;5057292;28;936;-36
2020/12/12 12:38:11;;;;;;;;;;;;;;;27.63;29.95;99438.63;5058148;28;747;-36
2020/12/12 12:40:36;;;;;;;;;;;;;;;27.66;30.14;99437.38;5067917;28;847;-34
2020/12/12 12:43:01;;;;;;;;;;;;;;;27.67;30.00;99436.34;5078062;28;823;-37
2020/12/12 12:45:27;;;;;;;;;;;;;;;27.62;30.10;99440.53;5077720;28;899;-31
2020/12/12 12:47:52;;;;;;;;;;;;;;;27.70;30.34;99442.16;5077968;28;838;-35
2020/12/12 12:50:17;;;;;;;;;;;;;;;27.62;30.28;99429.72;5062468;28;1914;-29
2020/12/12 12:52:43;;;;;;;;;;;;;;;27.49;29.95;99440.63;5058229;28;788;-33
2020/12/12 12:55:09;;;;;;;;;;;;;;;27.46;30.12;99436.47;5057499;28;748;-36
2020/12/12 12:57:34;;;;;;;;;;;;;;;27.45;30.15;99431.28;5057699;28;764;-34
2020/12/12 13:00:00;;;;;;;;;;;;;;;27.39;29.86;99430.28;5058045;28;744;-36
2020/12/12 13:02:25;;;;;;;;;;;;;;;25.88;32.19;99421.94;5057491;28;863;-31
2020/12/12 13:04:50;;;;;;;;;;;;;;;24.65;34.17;99411.81;5057846;28;995;-36
2020/12/12 13:07:16;;;;;;;;;;;;;;;23.87;35.33;99421.59;5057284;28;848;-28
2020/12/12 13:09:41;;;;;;;;;;;;;;;23.88;35.71;99436.69;5057296;28;1914;-39
2020/12/12 13:12:06;;;;;;;;;;;;;;;25.54;33.16;99436.16;5057237;28;832;-36